Lake Waccamaw, North Carolina
Current Conditions -  °F | °C
As of 10:35 AM on Sunday 21 Dec 2014 (Local Time) from KCPC Reporting Station
Clear Clear  
Wind Chill: 42°   Ceiling: Unl
Heat Index: 46°   Visibility: 10mi
Dew Point: 35°   Wind: 8mph
Humidity: 66%   Direction: 10°N
Pressure: 30.28"   Gusts: NA
Location:  34.32°N, 78.5°W
Report Text: KCPC 211535Z AUTO 01007KT 10SM CLR 08/02 A3028 RMK AO2 T00800019
Loading
Personal Weather Stations






























Interactive Weather Map New forecast layout! Learn more

10-Day Weather Forecast

Advertisements
Track Severe Weather on mobile